Time;durP1;ratioP1;P1;durP2;ratioP2;P2;SDS_P1;SDS_P2;PMS_P1;PMS_P2;Temp;Humidity;BMP_temperature;BMP_pressure;BME280_temperature;BME280_humidity;BME280_pressure;Samples;Min_cycle;Max_cycle;Signal;HPM_P1;HPM_P2
2022/05/01 00:01:27;;;;;;;16.15;14.45;;;8.70;99.90;;;;;;4933597;28;20699;-87
2022/05/01 00:03:53;;;;;;;17.20;14.88;;;8.70;99.90;;;;;;4943138;28;20403;-87
2022/05/01 00:06:19;;;;;;;14.95;13.25;;;8.70;99.90;;;;;;4941315;28;20038;-86
2022/05/01 00:08:47;;;;;;;17.70;15.13;;;8.70;99.90;;;;;;4957053;28;20126;-87
2022/05/01 00:11:13;;;;;;;16.80;13.32;;;8.70;99.90;;;;;;4935688;29;20043;-86
2022/05/01 00:13:40;;;;;;;15.82;13.93;;;8.70;99.90;;;;;;4964712;28;20074;-87
2022/05/01 00:16:06;;;;;;;17.20;11.13;;;8.70;99.90;;;;;;4929297;28;20081;-87
2022/05/01 00:18:31;;;;;;;17.75;11.70;;;8.60;99.90;;;;;;4958388;28;20040;-87
2022/05/01 00:20:57;;;;;;;16.33;13.10;;;8.60;99.90;;;;;;4961911;28;20046;-88
2022/05/01 00:23:22;;;;;;;17.40;11.32;;;8.60;99.90;;;;;;4955907;28;20083;-87
2022/05/01 00:25:48;;;;;;;17.20;14.23;;;8.50;99.90;;;;;;4958205;28;20047;-86
2022/05/01 00:28:14;;;;;;;14.93;11.43;;;8.60;99.90;;;;;;4966947;28;20089;-88
2022/05/01 00:30:41;;;;;;;17.13;12.88;;;8.50;99.90;;;;;;4958091;28;20726;-87
2022/05/01 00:38:37;;;;;;;15.88;11.32;;;8.50;99.90;;;;;;4941984;28;20114;-87
2022/05/01 00:41:07;;;;;;;16.95;13.85;;;8.40;99.90;;;;;;4925322;28;20508;-87
2022/05/01 00:43:33;;;;;;;15.95;13.90;;;8.50;99.90;;;;;;4963364;28;20042;-86
2022/05/01 00:45:59;;;;;;;16.20;14.18;;;8.50;99.90;;;;;;4929059;28;20403;-87
2022/05/01 00:48:24;;;;;;;16.38;12.65;;;8.50;99.90;;;;;;4924258;28;20043;-87
2022/05/01 00:50:52;;;;;;;17.10;14.68;;;8.50;99.90;;;;;;4941706;28;20051;-86
2022/05/01 00:53:18;;;;;;;20.10;11.35;;;8.50;99.90;;;;;;4944946;29;20118;-87
2022/05/01 00:55:44;;;;;;;15.73;11.93;;;8.40;99.90;;;;;;4957450;28;20515;-87
2022/05/01 00:58:09;;;;;;;18.05;13.15;;;8.40;99.90;;;;;;4959442;28;20058;-86
2022/05/01 01:00:35;;;;;;;17.95;15.20;;;8.40;99.90;;;;;;4944775;28;20051;-86
2022/05/01 01:03:01;;;;;;;18.08;15.55;;;8.40;99.90;;;;;;4958932;28;20055;-87
2022/05/01 01:05:28;;;;;;;17.27;15.00;;;8.50;99.90;;;;;;4932182;28;20038;-87
2022/05/01 01:07:53;;;;;;;18.33;12.70;;;8.50;99.90;;;;;;4958819;28;20046;-87
2022/05/01 01:10:20;;;;;;;16.48;14.77;;;8.50;99.90;;;;;;4962902;28;20051;-86
2022/05/01 01:12:56;;;;;;;18.33;14.98;;;8.50;99.90;;;;;;4958889;28;20711;-87
2022/05/01 01:15:30;;;;;;;17.42;15.07;;;8.50;99.90;;;;;;4954661;28;20049;-86
2022/05/01 01:17:56;;;;;;;19.27;16.02;;;8.50;99.90;;;;;;4940982;28;20313;-86
2022/05/01 01:20:25;;;;;;;19.45;11.23;;;8.50;99.90;;;;;;4959135;28;20039;-86
2022/05/01 01:22:57;;;;;;;20.00;13.18;;;8.40;99.90;;;;;;4923932;28;20047;-87
2022/05/01 01:25:29;;;;;;;18.75;16.63;;;8.30;99.90;;;;;;4960863;28;20035;-88
2022/05/01 01:27:58;;;;;;;20.67;16.73;;;8.40;99.90;;;;;;4944086;28;20057;-86
2022/05/01 01:33:10;;;;;;;18.92;16.80;;;8.30;99.90;;;;;;4949593;28;20047;-87
2022/05/01 01:35:38;;;;;;;18.38;16.25;;;8.30;99.90;;;;;;4940927;28;20047;-86
2022/05/01 01:38:04;;;;;;;17.52;12.70;;;8.40;99.90;;;;;;4964873;28;20046;-86
2022/05/01 01:40:34;;;;;;;16.63;11.98;;;8.30;99.90;;;;;;4932377;28;20058;-88
2022/05/01 01:43:02;;;;;;;17.55;13.13;;;8.30;99.90;;;;;;4944186;28;20046;-86
2022/05/01 01:45:28;;;;;;;18.67;16.73;;;8.30;99.90;;;;;;4949036;28;20145;-88
2022/05/01 01:48:16;;;;;;;18.50;13.70;;;8.30;99.90;;;;;;4927390;28;20050;-87
2022/05/01 01:50:43;;;;;;;18.38;16.17;;;8.30;99.90;;;;;;4912867;28;20051;-86
2022/05/01 01:53:10;;;;;;;21.90;14.23;;;8.30;99.90;;;;;;4937215;28;20542;-87
2022/05/01 01:55:38;;;;;;;18.70;16.70;;;8.30;99.90;;;;;;4952037;28;20055;-86
2022/05/01 01:58:05;;;;;;;18.67;16.67;;;8.30;99.90;;;;;;4953106;28;20051;-86
2022/05/01 02:00:31;;;;;;;18.33;15.32;;;8.30;99.90;;;;;;4936414;28;20053;-89
2022/05/01 02:03:03;;;;;;;18.98;12.63;;;8.30;99.90;;;;;;4938500;28;20178;-86
2022/05/01 02:05:29;;;;;;;18.25;16.35;;;8.30;99.90;;;;;;4930508;28;20092;-85
2022/05/01 02:07:55;;;;;;;17.88;15.95;;;8.30;99.90;;;;;;4936949;28;20079;-88
2022/05/01 02:10:21;;;;;;;18.30;16.33;;;8.40;99.90;;;;;;4943440;28;20066;-86
2022/05/01 02:12:47;;;;;;;18.02;13.82;;;8.40;99.90;;;;;;4936598;28;20090;-87
2022/05/01 02:15:13;;;;;;;18.73;16.10;;;8.30;99.90;;;;;;4923774;29;20044;-87
2022/05/01 02:17:39;;;;;;;18.75;13.60;;;8.30;99.90;;;;;;4952162;28;20416;-87
2022/05/01 02:20:05;;;;;;;17.23;11.75;;;8.30;99.90;;;;;;4940850;28;20082;-87
2022/05/01 02:22:31;;;;;;;18.98;16.95;;;8.20;99.90;;;;;;4924477;28;20148;-87
2022/05/01 02:24:57;;;;;;;18.67;16.67;;;8.30;99.90;;;;;;4948926;28;20102;-86
2022/05/01 02:27:22;;;;;;;17.23;13.68;;;8.30;99.90;;;;;;4957567;28;20395;-86
2022/05/01 02:29:48;;;;;;;18.05;13.43;;;8.20;99.90;;;;;;4956236;28;20051;-87
2022/05/01 02:32:14;;;;;;;18.88;14.32;;;8.20;99.90;;;;;;4960238;28;20070;-87
2022/05/01 02:34:40;;;;;;;18.08;13.85;;;8.10;99.90;;;;;;4925648;28;20051;-87
2022/05/01 02:37:06;;;;;;;20.73;18.55;;;8.10;99.90;;;;;;4959581;28;20395;-87
2022/05/01 02:39:33;;;;;;;20.75;18.00;;;8.10;99.90;;;;;;4960462;28;20035;-87
2022/05/01 02:41:59;;;;;;;20.42;17.80;;;8.10;99.90;;;;;;4934285;28;20416;-87
2022/05/01 02:44:24;;;;;;;19.50;17.40;;;8.10;99.90;;;;;;4962403;28;20051;-87
2022/05/01 02:46:50;;;;;;;18.60;12.93;;;8.10;99.90;;;;;;4941157;28;20361;-87
2022/05/01 02:49:16;;;;;;;20.02;17.85;;;8.10;99.90;;;;;;4962484;28;20409;-86
2022/05/01 02:51:41;;;;;;;18.70;16.70;;;8.10;99.90;;;;;;4959735;28;20120;-85
2022/05/01 02:54:07;;;;;;;19.85;14.60;;;8.10;99.90;;;;;;4956931;28;20125;-86
2022/05/01 02:56:33;;;;;;;21.45;14.15;;;8.10;99.90;;;;;;4946097;28;20681;-87
2022/05/01 02:59:00;;;;;;;18.95;14.38;;;8.10;99.90;;;;;;4942625;29;20056;-87
2022/05/01 03:01:25;;;;;;;20.60;17.27;;;8.10;99.90;;;;;;4941316;28;20083;-87
2022/05/01 03:03:51;;;;;;;20.95;13.45;;;8.10;99.90;;;;;;4939200;28;20071;-87
2022/05/01 03:06:17;;;;;;;19.15;14.15;;;8.10;99.90;;;;;;4954559;28;20640;-86
2022/05/01 03:08:42;;;;;;;20.42;17.90;;;8.00;99.90;;;;;;4939753;28;20182;-88
2022/05/01 03:11:08;;;;;;;21.30;18.98;;;8.10;99.90;;;;;;4959160;28;20057;-87
2022/05/01 03:13:34;;;;;;;21.48;19.15;;;8.10;99.90;;;;;;4943707;28;20140;-87
2022/05/01 03:16:00;;;;;;;19.05;13.50;;;8.10;99.90;;;;;;4961349;28;20377;-87
2022/05/01 03:23:53;;;;;;;26.38;19.80;;;8.10;99.90;;;;;;4959614;28;20043;-87
2022/05/01 03:26:19;;;;;;;20.33;15.23;;;8.10;99.90;;;;;;4942405;28;20114;-87
2022/05/01 03:28:45;;;;;;;21.95;19.65;;;8.00;99.90;;;;;;4941023;28;20047;-87
2022/05/01 03:31:13;;;;;;;19.67;14.98;;;8.00;99.90;;;;;;4931987;28;20051;-87
2022/05/01 03:33:38;;;;;;;24.25;19.60;;;8.00;99.90;;;;;;4949627;28;20043;-86
2022/05/01 03:36:06;;;;;;;21.95;14.02;;;8.00;99.90;;;;;;4921632;28;20043;-88
2022/05/01 03:38:36;;;;;;;21.85;18.80;;;8.00;99.90;;;;;;4943376;28;20106;-87
2022/05/01 03:41:06;;;;;;;20.83;14.43;;;8.00;99.90;;;;;;4947114;29;20444;-86
2022/05/01 03:43:33;;;;;;;20.85;14.93;;;8.00;99.90;;;;;;4940521;28;20047;-87
2022/05/01 03:45:59;;;;;;;22.63;13.65;;;7.90;99.90;;;;;;4957481;28;20392;-87
2022/05/01 03:48:25;;;;;;;20.83;15.98;;;7.90;99.90;;;;;;4962471;28;20070;-87
2022/05/01 03:50:52;;;;;;;20.40;15.02;;;7.90;99.90;;;;;;4943139;28;20055;-86
2022/05/01 03:53:19;;;;;;;20.65;18.38;;;7.90;99.90;;;;;;4957648;28;20077;-87
2022/05/01 03:55:44;;;;;;;22.88;19.55;;;7.90;99.90;;;;;;4943015;28;20058;-87
2022/05/01 03:58:10;;;;;;;23.75;20.17;;;7.90;99.90;;;;;;4958966;28;20059;-88
2022/05/01 04:00:36;;;;;;;20.30;15.00;;;7.90;99.90;;;;;;4958975;28;20507;-87
2022/05/01 04:03:01;;;;;;;22.95;14.57;;;7.90;99.90;;;;;;4941890;28;20035;-86
2022/05/01 04:05:27;;;;;;;22.85;20.45;;;7.80;99.90;;;;;;4925730;28;20039;-86
2022/05/01 04:07:53;;;;;;;21.05;14.00;;;7.90;99.90;;;;;;4962491;28;20182;-86
2022/05/01 04:10:18;;;;;;;23.65;16.95;;;7.80;99.90;;;;;;4934856;28;20637;-87
2022/05/01 04:12:45;;;;;;;21.77;19.45;;;7.80;99.90;;;;;;4943205;28;20051;-87
2022/05/01 04:15:12;;;;;;;20.20;13.23;;;7.90;99.90;;;;;;4922913;28;20046;-87
2022/05/01 04:17:40;;;;;;;22.95;20.42;;;7.80;99.90;;;;;;4918456;28;20110;-87
2022/05/01 04:20:14;;;;;;;21.67;19.33;;;7.80;99.90;;;;;;4958741;28;20058;-87
2022/05/01 04:22:44;;;;;;;21.75;19.42;;;7.90;99.90;;;;;;4923506;28;20059;-87
2022/05/01 04:25:32;;;;;;;18.83;13.45;;;7.90;99.90;;;;;;4944646;28;20051;-85
2022/05/01 04:28:06;;;;;;;20.95;14.68;;;7.70;99.90;;;;;;4941440;28;20067;-87
2022/05/01 04:30:32;;;;;;;24.65;20.77;;;7.70;99.90;;;;;;4941964;28;20462;-87
2022/05/01 04:33:09;;;;;;;22.55;20.15;;;7.80;99.90;;;;;;4962036;28;20085;-87
2022/05/01 04:35:40;;;;;;;22.90;14.90;;;7.80;99.90;;;;;;4929508;28;20043;-87
2022/05/01 04:38:07;;;;;;;21.95;19.60;;;7.70;99.90;;;;;;4941790;28;20057;-87
2022/05/01 04:40:45;;;;;;;22.25;19.88;;;7.80;99.90;;;;;;4940419;28;20089;-86
2022/05/01 04:43:17;;;;;;;21.67;14.35;;;7.80;99.90;;;;;;4943768;28;20599;-87
2022/05/01 04:45:43;;;;;;;19.90;13.30;;;7.80;99.90;;;;;;4950830;28;20098;-86
2022/05/01 04:48:10;;;;;;;21.60;14.90;;;7.80;99.90;;;;;;4944551;28;20070;-87
2022/05/01 04:50:37;;;;;;;21.17;18.90;;;7.70;99.90;;;;;;4936590;28;20139;-87
2022/05/01 04:53:06;;;;;;;21.45;19.17;;;7.80;99.90;;;;;;4960484;28;20043;-88
2022/05/01 04:55:32;;;;;;;21.55;19.30;;;7.70;99.90;;;;;;4962432;28;20046;-88
2022/05/01 04:57:59;;;;;;;23.55;14.55;;;7.80;99.90;;;;;;4956677;28;20141;-88
2022/05/01 05:00:26;;;;;;;19.73;14.40;;;7.80;99.90;;;;;;4961988;28;20035;-88
2022/05/01 05:02:54;;;;;;;20.23;13.45;;;7.80;99.90;;;;;;4954573;28;20103;-89
2022/05/01 05:05:21;;;;;;;21.58;14.60;;;7.80;99.90;;;;;;4956796;28;20412;-89
2022/05/01 05:07:47;;;;;;;20.20;17.88;;;7.80;99.90;;;;;;4941014;28;20047;-89
2022/05/01 05:10:14;;;;;;;20.00;17.88;;;7.90;99.90;;;;;;4940467;28;20174;-88
2022/05/01 05:12:44;;;;;;;21.85;19.10;;;8.00;99.90;;;;;;4947578;29;20055;-89
2022/05/01 05:15:15;;;;;;;19.58;12.50;;;8.00;99.90;;;;;;4956652;29;20062;-93
2022/05/01 05:17:42;;;;;;;20.10;14.65;;;8.00;99.90;;;;;;4960302;28;20058;-94
2022/05/01 05:20:11;;;;;;;23.38;19.63;;;8.00;99.90;;;;;;4955604;28;20043;-89
2022/05/01 05:22:37;;;;;;;20.92;18.73;;;8.00;99.90;;;;;;4960400;28;20043;-90
2022/05/01 05:25:04;;;;;;;20.60;18.45;;;8.10;99.90;;;;;;4956643;28;20084;-88
2022/05/01 05:27:30;;;;;;;18.65;12.18;;;8.10;99.90;;;;;;4959016;28;20051;-90
2022/05/01 05:29:56;;;;;;;23.00;19.42;;;8.10;99.90;;;;;;4943604;28;20423;-88
2022/05/01 05:32:23;;;;;;;21.70;19.25;;;8.20;99.90;;;;;;4926176;29;20055;-87
2022/05/01 05:34:50;;;;;;;22.00;19.17;;;8.20;99.90;;;;;;4945442;28;20050;-93
2022/05/01 05:37:16;;;;;;;20.52;17.85;;;8.20;99.90;;;;;;4946999;28;20046;-87
2022/05/01 05:39:42;;;;;;;18.00;11.65;;;8.30;99.90;;;;;;4959924;28;20043;-94
2022/05/01 05:42:08;;;;;;;19.25;11.43;;;8.20;99.90;;;;;;4934975;29;20050;-95
2022/05/01 05:44:34;;;;;;;19.02;13.98;;;8.20;99.90;;;;;;4941860;28;20051;-89
2022/05/01 05:47:00;;;;;;;20.05;17.90;;;8.20;99.90;;;;;;4927894;28;20046;-87
2022/05/01 05:49:25;;;;;;;20.67;18.02;;;8.30;99.90;;;;;;4961102;28;20585;-93
2022/05/01 05:51:51;;;;;;;22.17;18.15;;;8.30;99.90;;;;;;4922679;29;20094;-94
2022/05/01 05:54:17;;;;;;;20.27;13.93;;;8.30;99.90;;;;;;4941106;28;20059;-89
2022/05/01 05:56:42;;;;;;;20.65;16.70;;;8.30;99.90;;;;;;4957323;28;20109;-91
2022/05/01 05:59:08;;;;;;;20.15;17.63;;;8.30;99.90;;;;;;4959734;28;20407;-91
2022/05/01 06:01:34;;;;;;;19.20;16.88;;;8.30;99.90;;;;;;4960238;28;20384;-89
2022/05/01 06:03:59;;;;;;;19.13;14.10;;;8.30;99.90;;;;;;4930568;28;20472;-90
2022/05/01 06:06:25;;;;;;;18.45;16.52;;;8.30;99.90;;;;;;4928829;28;20468;-91
2022/05/01 06:08:50;;;;;;;19.27;17.17;;;8.40;99.90;;;;;;4932983;28;20054;-90
2022/05/01 06:11:16;;;;;;;20.25;17.42;;;8.40;99.90;;;;;;4939744;28;20522;-89
2022/05/01 06:13:42;;;;;;;18.42;14.00;;;8.50;99.90;;;;;;4939539;28;20070;-91
2022/05/01 06:16:07;;;;;;;19.63;17.38;;;8.40;99.90;;;;;;4935914;29;20054;-89
2022/05/01 06:18:33;;;;;;;17.60;13.55;;;8.50;99.90;;;;;;4921101;28;20043;-88
2022/05/01 06:20:58;;;;;;;17.55;13.45;;;8.50;99.90;;;;;;4922088;28;20043;-90
2022/05/01 06:23:24;;;;;;;21.33;15.90;;;8.50;99.90;;;;;;4938723;28;20047;-92
2022/05/01 06:25:50;;;;;;;19.15;17.15;;;8.60;99.90;;;;;;4938045;28;20075;-90
2022/05/01 06:28:16;;;;;;;18.30;13.07;;;8.60;99.90;;;;;;4940875;28;20495;-89
2022/05/01 06:30:44;;;;;;;19.95;14.45;;;8.60;99.90;;;;;;4969948;28;20027;-89
2022/05/01 06:33:13;;;;;;;20.00;18.00;;;8.60;99.90;;;;;;4972559;28;20372;-88
2022/05/01 06:35:39;;;;;;;19.10;16.75;;;8.60;99.90;;;;;;4954412;28;20467;-89
2022/05/01 06:38:06;;;;;;;18.63;16.60;;;8.70;99.90;;;;;;4951611;28;20070;-87
2022/05/01 06:40:32;;;;;;;18.42;16.27;;;8.70;99.90;;;;;;4948340;28;20043;-89
2022/05/01 06:42:58;;;;;;;18.75;16.73;;;8.70;99.90;;;;;;4961150;28;20427;-88
2022/05/01 06:45:23;;;;;;;19.77;16.38;;;8.70;99.90;;;;;;4955438;28;20924;-87
2022/05/01 06:47:49;;;;;;;19.67;13.82;;;8.80;99.90;;;;;;4955970;28;20125;-90
2022/05/01 06:50:14;;;;;;;18.33;12.73;;;8.70;99.90;;;;;;4965589;28;20051;-96
2022/05/01 06:52:40;;;;;;;19.48;17.30;;;8.70;99.90;;;;;;4962850;28;20126;-95
2022/05/01 06:55:06;;;;;;;19.48;17.27;;;8.80;99.90;;;;;;4947919;28;20055;-95
2022/05/01 06:57:32;;;;;;;17.92;16.02;;;8.80;99.90;;;;;;4927923;28;20098;-90
2022/05/01 06:59:57;;;;;;;18.00;16.10;;;8.90;99.90;;;;;;4957165;28;20063;-89
2022/05/01 07:02:23;;;;;;;19.67;17.52;;;8.90;99.90;;;;;;4938505;28;20440;-89
2022/05/01 07:04:49;;;;;;;19.70;17.23;;;9.00;99.90;;;;;;4955134;28;20062;-89
2022/05/01 07:07:14;;;;;;;18.55;16.55;;;9.00;99.90;;;;;;4937662;28;20399;-93
2022/05/01 07:09:40;;;;;;;19.23;17.20;;;9.10;99.90;;;;;;4938344;28;20053;-87
2022/05/01 07:12:09;;;;;;;19.23;17.25;;;9.20;99.90;;;;;;4962203;28;20167;-88
2022/05/01 07:14:35;;;;;;;20.08;17.98;;;9.20;99.90;;;;;;4965929;28;20115;-90
2022/05/01 07:17:00;;;;;;;19.65;17.42;;;9.30;99.90;;;;;;4958173;28;20110;-87
2022/05/01 07:19:26;;;;;;;19.70;17.40;;;9.40;99.90;;;;;;4924536;28;20047;-86
2022/05/01 07:21:51;;;;;;;19.73;17.63;;;9.40;99.90;;;;;;4946008;28;20106;-87
2022/05/01 07:24:17;;;;;;;19.13;17.13;;;9.50;99.90;;;;;;4939237;28;20035;-88
2022/05/01 07:26:42;;;;;;;17.63;15.82;;;9.60;99.90;;;;;;4951421;28;20078;-86
2022/05/01 07:29:08;;;;;;;16.90;15.10;;;9.70;99.90;;;;;;4953304;28;20046;-88
2022/05/01 07:31:34;;;;;;;15.63;13.77;;;9.90;99.90;;;;;;4958734;28;20047;-87
2022/05/01 07:33:59;;;;;;;18.52;14.52;;;10.00;99.90;;;;;;4943418;28;20078;-87
2022/05/01 07:36:25;;;;;;;16.00;14.15;;;10.00;99.90;;;;;;4958776;28;20105;-88
2022/05/01 07:38:50;;;;;;;16.40;13.55;;;10.20;99.90;;;;;;4962106;28;20130;-88
2022/05/01 07:41:17;;;;;;;16.27;13.40;;;10.30;99.90;;;;;;4943569;28;20050;-86
2022/05/01 07:43:43;;;;;;;12.25;10.23;;;10.40;99.90;;;;;;4948769;28;20050;-88
2022/05/01 07:46:09;;;;;;;12.35;9.65;;;10.40;99.90;;;;;;4951078;28;20043;-95
2022/05/01 07:48:34;;;;;;;12.52;9.70;;;10.50;99.90;;;;;;4958188;28;20138;-90
2022/05/01 07:51:00;;;;;;;14.50;11.32;;;10.60;99.90;;;;;;4950225;28;20051;-89
2022/05/01 07:53:26;;;;;;;12.90;10.57;;;10.60;99.90;;;;;;4937037;28;20046;-88
2022/05/01 07:55:51;;;;;;;12.43;10.00;;;10.70;99.90;;;;;;4972935;28;20042;-86
2022/05/01 07:58:19;;;;;;;13.48;10.02;;;10.80;99.90;;;;;;4972607;28;20050;-86
2022/05/01 08:00:45;;;;;;;12.52;10.35;;;10.90;99.90;;;;;;4971365;28;20043;-89
2022/05/01 08:05:55;;;;;;;15.68;11.75;;;11.10;99.90;;;;;;4972105;28;20495;-88
2022/05/01 08:08:20;;;;;;;15.10;11.00;;;11.30;99.90;;;;;;4972345;28;20117;-88
2022/05/01 08:10:46;;;;;;;14.10;10.65;;;11.30;99.90;;;;;;4954815;28;20472;-90
2022/05/01 08:13:11;;;;;;;13.60;10.30;;;11.40;99.90;;;;;;4954725;28;20488;-89
2022/05/01 08:15:37;;;;;;;13.80;10.77;;;11.30;99.90;;;;;;4969681;28;20518;-86
2022/05/01 08:21:05;;;;;;;14.35;11.52;;;11.40;99.90;;;;;;4971762;28;20043;-88
2022/05/01 08:23:32;;;;;;;13.45;11.45;;;11.50;99.90;;;;;;4971449;28;20074;-87
2022/05/01 08:26:02;;;;;;;13.88;11.25;;;11.60;99.90;;;;;;4954554;28;20138;-87
2022/05/01 08:28:30;;;;;;;14.35;11.05;;;11.70;99.90;;;;;;4972105;28;20051;-87
2022/05/01 08:30:56;;;;;;;13.48;10.45;;;11.80;99.90;;;;;;4954375;28;20050;-86
2022/05/01 08:33:21;;;;;;;13.00;11.13;;;11.90;99.90;;;;;;4971005;28;20091;-86
2022/05/01 08:35:47;;;;;;;12.60;10.65;;;12.00;99.90;;;;;;4954380;28;20070;-87
2022/05/01 08:38:12;;;;;;;12.50;9.70;;;12.10;99.90;;;;;;4954304;28;20126;-88
2022/05/01 08:40:38;;;;;;;12.07;9.55;;;12.20;99.90;;;;;;4952868;28;20031;-85
2022/05/01 08:43:05;;;;;;;14.57;10.23;;;12.30;99.90;;;;;;4954564;28;20047;-87
2022/05/01 08:45:47;;;;;;;12.65;10.40;;;12.30;99.90;;;;;;4954483;28;20408;-88
2022/05/01 08:48:18;;;;;;;13.82;10.95;;;12.10;99.90;;;;;;4953537;28;20065;-88
2022/05/01 08:50:45;;;;;;;13.70;10.63;;;12.10;99.90;;;;;;4954013;28;20122;-89
2022/05/01 08:53:13;;;;;;;12.00;10.23;;;12.30;99.90;;;;;;4954339;28;20047;-88
2022/05/01 08:55:40;;;;;;;12.55;10.07;;;12.30;99.90;;;;;;4971705;28;20122;-87
2022/05/01 08:58:07;;;;;;;14.73;10.13;;;12.40;99.90;;;;;;4938472;28;20047;-87
2022/05/01 09:00:32;;;;;;;12.45;10.43;;;12.50;99.90;;;;;;4953548;28;20071;-87
2022/05/01 09:02:58;;;;;;;13.23;9.30;;;12.60;99.90;;;;;;4953385;28;20414;-88
2022/05/01 09:05:24;;;;;;;12.27;10.10;;;12.60;99.90;;;;;;4953264;28;20046;-88
2022/05/01 09:07:49;;;;;;;11.70;8.75;;;12.60;99.90;;;;;;4971642;28;20042;-87
2022/05/01 09:10:16;;;;;;;12.35;9.35;;;12.60;99.90;;;;;;4970749;28;20070;-86
2022/05/01 09:12:52;;;;;;;13.00;9.40;;;12.70;99.90;;;;;;4951150;29;20420;-87
2022/05/01 09:15:31;;;;;;;12.43;9.57;;;12.70;99.90;;;;;;4948490;28;20054;-88
2022/05/01 09:18:01;;;;;;;13.13;9.55;;;12.70;99.90;;;;;;4969328;28;20405;-89
2022/05/01 09:20:27;;;;;;;12.27;9.40;;;12.60;99.90;;;;;;4971052;28;20070;-89
2022/05/01 09:22:54;;;;;;;14.00;9.80;;;12.60;99.90;;;;;;4972093;28;20085;-86
2022/05/01 09:25:25;;;;;;;11.52;8.80;;;12.80;99.90;;;;;;4971990;28;20043;-87
2022/05/01 09:27:56;;;;;;;11.95;8.82;;;12.90;99.90;;;;;;4945076;29;20047;-91
2022/05/01 09:30:33;;;;;;;11.30;8.63;;;13.00;99.90;;;;;;4950186;28;20071;-88
2022/05/01 09:33:00;;;;;;;10.85;8.05;;;13.10;99.90;;;;;;4968398;28;20058;-86
2022/05/01 09:35:34;;;;;;;11.80;7.97;;;13.10;99.90;;;;;;4949390;28;20039;-88
2022/05/01 09:38:23;;;;;;;11.10;8.00;;;13.00;99.90;;;;;;4935673;28;20054;-89
2022/05/01 09:41:01;;;;;;;11.52;7.38;;;13.10;99.90;;;;;;4930501;28;20039;-89
2022/05/01 09:43:44;;;;;;;10.10;7.40;;;12.90;99.90;;;;;;4971392;28;20095;-88
2022/05/01 09:46:16;;;;;;;12.25;8.30;;;12.80;99.90;;;;;;4953094;28;20043;-89
2022/05/01 09:48:44;;;;;;;11.60;7.97;;;12.80;99.90;;;;;;4950962;28;20774;-89
2022/05/01 09:51:19;;;;;;;11.38;7.47;;;12.80;99.90;;;;;;4957799;28;20407;-88
2022/05/01 09:53:46;;;;;;;11.85;7.40;;;12.90;99.90;;;;;;4971016;28;20047;-86
2022/05/01 09:56:12;;;;;;;11.30;7.30;;;12.90;99.90;;;;;;4950012;28;20406;-88
2022/05/01 09:58:40;;;;;;;10.25;7.05;;;13.10;99.90;;;;;;4953431;28;20428;-85
2022/05/01 10:01:14;;;;;;;10.85;7.90;;;13.20;99.90;;;;;;4970708;28;20046;-88
2022/05/01 10:03:42;;;;;;;10.93;7.13;;;13.30;99.90;;;;;;4967407;28;20039;-87
2022/05/01 10:06:10;;;;;;;10.13;7.00;;;13.30;99.90;;;;;;4968340;28;20097;-89
2022/05/01 10:08:38;;;;;;;10.68;7.05;;;13.40;99.90;;;;;;4940831;29;20408;-86
2022/05/01 10:11:05;;;;;;;10.43;7.32;;;13.40;99.90;;;;;;4964741;28;20047;-87
2022/05/01 10:13:31;;;;;;;11.40;7.22;;;13.50;99.90;;;;;;4950680;28;20074;-86
2022/05/01 10:15:59;;;;;;;10.57;7.20;;;13.70;99.90;;;;;;4967835;28;20428;-88
2022/05/01 10:18:25;;;;;;;10.55;7.22;;;13.80;99.90;;;;;;4970008;28;20139;-88
2022/05/01 10:20:50;;;;;;;10.75;6.68;;;13.90;99.90;;;;;;4945696;29;20454;-88
2022/05/01 10:23:16;;;;;;;11.23;7.72;;;14.00;99.90;;;;;;4959558;28;20384;-94
2022/05/01 10:25:59;;;;;;;9.98;8.18;;;14.10;99.90;;;;;;4949797;28;20074;-88
2022/05/01 10:28:53;;;;;;;8.90;6.55;;;14.30;99.90;;;;;;4968363;28;20046;-87
2022/05/01 10:34:51;;;;;;;10.95;7.00;;;14.60;99.90;;;;;;4949746;28;20043;-88
2022/05/01 10:37:54;;;;;;;9.48;6.63;;;14.70;99.90;;;;;;4950066;28;20051;-94
2022/05/01 10:40:20;;;;;;;10.25;6.88;;;14.80;99.90;;;;;;4958660;28;20057;-93
2022/05/01 10:42:48;;;;;;;10.25;6.95;;;14.60;99.90;;;;;;4942845;28;20043;-92
2022/05/01 10:45:23;;;;;;;9.60;6.50;;;14.60;99.70;;;;;;4949688;28;20039;-94
2022/05/01 10:47:50;;;;;;;9.85;6.53;;;14.70;99.40;;;;;;4952056;28;20536;-92
2022/05/01 10:50:21;;;;;;;10.55;6.93;;;14.80;98.60;;;;;;4935733;28;20050;-93
2022/05/01 10:53:08;;;;;;;9.73;6.03;;;14.90;98.50;;;;;;4933693;28;20050;-94
2022/05/01 10:56:19;;;;;;;9.82;6.20;;;15.10;99.90;;;;;;4936172;29;20039;-91
2022/05/01 10:58:45;;;;;;;9.48;6.40;;;15.30;98.30;;;;;;4925473;28;20090;-93
2022/05/01 11:01:11;;;;;;;10.25;5.70;;;15.30;97.00;;;;;;4950370;28;20102;-90
2022/05/01 11:03:49;;;;;;;8.38;5.38;;;15.40;95.50;;;;;;4954610;28;20493;-91
2022/05/01 11:06:20;;;;;;;8.32;5.45;;;15.50;95.10;;;;;;4949184;28;20211;-94
2022/05/01 11:08:46;;;;;;;8.55;5.18;;;15.60;95.30;;;;;;4917733;28;20075;-95
2022/05/01 11:11:13;;;;;;;9.43;5.43;;;15.70;95.20;;;;;;4942444;28;20058;-92
2022/05/01 11:13:40;;;;;;;8.13;4.70;;;15.80;93.40;;;;;;4955183;28;20459;-96
2022/05/01 11:16:07;;;;;;;8.20;4.72;;;15.80;93.40;;;;;;4937861;28;20519;-92
2022/05/01 11:18:53;;;;;;;7.60;5.05;;;15.70;91.70;;;;;;4969648;28;20057;-91
2022/05/01 11:21:22;;;;;;;8.23;4.43;;;15.40;86.60;;;;;;4924124;28;20043;-90
2022/05/01 11:23:58;;;;;;;7.82;5.05;;;15.30;91.10;;;;;;4956373;28;20050;-90
2022/05/01 11:26:24;;;;;;;8.23;5.30;;;15.30;91.40;;;;;;4973321;28;20455;-90
2022/05/01 11:28:54;;;;;;;8.73;5.13;;;15.20;91.60;;;;;;4940404;28;20094;-90
2022/05/01 11:31:38;;;;;;;7.75;5.00;;;15.30;92.50;;;;;;4972851;28;20073;-90
2022/05/01 11:34:16;;;;;;;8.32;4.53;;;15.10;89.60;;;;;;4956062;28;20466;-91
2022/05/01 11:36:57;;;;;;;10.82;6.43;;;15.10;90.40;;;;;;4972161;28;20125;-92
2022/05/01 11:39:41;;;;;;;;;;;15.00;91.00;;;;;;4974473;28;20050;-91
2022/05/01 11:42:36;;;;;;;8.55;5.90;;;14.80;93.10;;;;;;4955545;28;19922;-90
2022/05/01 11:45:04;;;;;;;9.65;6.43;;;14.70;92.00;;;;;;4973234;28;20043;-89
2022/05/01 11:47:34;;;;;;;8.77;5.75;;;14.70;93.10;;;;;;4955952;28;20085;-90
2022/05/01 11:50:00;;;;;;;9.68;5.80;;;14.70;93.60;;;;;;4973493;28;20043;-91
2022/05/01 11:52:26;;;;;;;9.77;6.00;;;14.70;94.50;;;;;;4956144;28;20051;-87
2022/05/01 11:54:57;;;;;;;8.77;6.75;;;14.80;93.70;;;;;;4956047;28;20047;-88
2022/05/01 12:03:01;;;;;;;8.60;6.10;;;14.70;91.40;;;;;;4941921;28;20461;-89
2022/05/01 12:05:31;;;;;;;9.55;6.10;;;14.70;91.00;;;;;;4972687;28;20538;-87
2022/05/01 12:07:59;;;;;;;9.30;5.78;;;14.70;89.80;;;;;;4955083;28;20050;-89
2022/05/01 12:10:25;;;;;;;9.02;5.70;;;14.50;89.00;;;;;;4972377;28;20385;-89
2022/05/01 12:12:51;;;;;;;8.80;5.55;;;14.50;90.20;;;;;;4942483;29;20417;-89
2022/05/01 12:15:16;;;;;;;8.13;4.88;;;14.60;90.10;;;;;;4937250;29;20090;-90
2022/05/01 12:17:43;;;;;;;7.82;4.85;;;14.70;91.00;;;;;;4955080;29;20054;-89
2022/05/01 12:20:10;;;;;;;8.88;5.47;;;14.80;87.80;;;;;;4936320;29;20055;-86
2022/05/01 12:22:39;;;;;;;8.05;5.18;;;14.80;87.20;;;;;;4962431;28;20098;-90
2022/05/01 12:25:10;;;;;;;9.77;5.32;;;14.70;85.20;;;;;;4928313;29;20404;-88
2022/05/01 12:27:40;;;;;;;8.50;5.30;;;14.70;84.50;;;;;;4991843;28;20047;-87
2022/05/01 12:30:07;;;;;;;8.35;5.13;;;14.70;83.90;;;;;;4962825;28;20062;-88
2022/05/01 12:32:33;;;;;;;7.85;4.95;;;14.70;83.80;;;;;;4975132;28;20082;-88
2022/05/01 12:35:01;;;;;;;7.90;5.18;;;14.70;82.30;;;;;;4938457;28;20046;-89
2022/05/01 12:37:34;;;;;;;7.45;4.68;;;14.60;82.00;;;;;;4971636;28;20039;-88
2022/05/01 12:40:12;;;;;;;8.85;5.20;;;14.70;86.00;;;;;;4955194;28;20442;-89
2022/05/01 12:45:44;;;;;;;8.23;5.25;;;15.00;83.00;;;;;;4935682;29;20055;-89
2022/05/01 12:48:11;;;;;;;8.43;4.70;;;15.00;82.80;;;;;;4935917;29;20099;-89
2022/05/01 12:50:38;;;;;;;8.27;4.68;;;15.10;83.60;;;;;;4952944;29;20035;-88
2022/05/01 12:53:29;;;;;;;7.65;4.65;;;15.10;82.00;;;;;;4952757;29;20054;-89
2022/05/01 12:55:57;;;;;;;8.25;5.05;;;15.30;79.10;;;;;;4931344;28;20503;-90
2022/05/01 12:58:34;;;;;;;7.95;4.55;;;15.20;78.20;;;;;;4938958;28;20050;-88
2022/05/01 13:01:03;;;;;;;8.10;4.80;;;15.10;79.30;;;;;;4954011;28;20086;-87
2022/05/01 13:03:37;;;;;;;8.38;4.20;;;15.20;77.70;;;;;;4971759;28;20042;-89
2022/05/01 13:06:17;;;;;;;9.07;4.65;;;15.10;75.60;;;;;;4938788;28;20053;-88
2022/05/01 13:08:52;;;;;;;7.63;4.75;;;15.10;74.50;;;;;;4971279;28;20050;-88
2022/05/01 13:11:33;;;;;;;7.47;4.40;;;15.00;74.50;;;;;;4965656;28;20118;-89
2022/05/01 13:14:00;;;;;;;7.32;4.20;;;14.90;72.00;;;;;;4957882;28;20055;-89
2022/05/01 13:16:39;;;;;;;7.18;4.47;;;14.80;75.40;;;;;;4938192;28;20043;-90